createdAt,value
2022-11-15T00:00:40.794Z,97799.56
2022-11-15T00:06:08.088Z,97798.56
2022-11-15T00:11:29.443Z,97790.66
2022-11-15T00:16:50.433Z,97788.16
2022-11-15T00:22:11.841Z,97786.50
2022-11-15T00:27:33.243Z,97784.00
2022-11-15T00:32:54.459Z,97777.13
2022-11-15T00:38:15.531Z,97770.75
2022-11-15T00:43:36.586Z,97770.97
2022-11-15T00:48:57.604Z,97761.91
2022-11-15T00:54:21.239Z,97761.06
2022-11-15T00:59:41.977Z,97757.56
2022-11-15T01:05:03.805Z,97759.94
2022-11-15T01:10:26.876Z,97748.06
2022-11-15T01:15:48.178Z,97739.72
2022-11-15T01:21:16.757Z,97745.06
2022-11-15T01:26:37.534Z,97744.66
2022-11-15T01:31:58.763Z,97742.31
2022-11-15T01:37:19.594Z,97743.25
2022-11-15T01:42:40.378Z,97741.78
2022-11-15T01:48:01.790Z,97736.19
2022-11-15T01:53:23.924Z,97735.63
2022-11-15T01:58:46.485Z,97727.69
2022-11-15T02:04:17.999Z,97727.00
2022-11-15T02:09:39.642Z,97725.47
2022-11-15T02:15:01.500Z,97716.63
2022-11-15T02:21:07.008Z,97704.16
2022-11-15T02:27:03.133Z,97689.84
2022-11-15T02:32:45.384Z,97698.03
2022-11-15T02:38:32.678Z,97687.16
2022-11-15T02:44:13.348Z,97689.56
2022-11-15T02:49:36.140Z,97674.94
2022-11-15T02:54:58.990Z,97667.34
2022-11-15T03:00:23.536Z,97657.47
2022-11-15T03:05:57.029Z,97661.34
2022-11-15T03:11:22.316Z,97657.28
2022-11-15T03:16:59.143Z,97652.91
2022-11-15T03:22:24.196Z,97652.50
2022-11-15T03:27:51.730Z,97649.81
2022-11-15T03:33:13.521Z,97644.66
2022-11-15T03:38:36.412Z,97640.16
2022-11-15T03:44:29.491Z,97619.38
2022-11-15T03:50:08.591Z,97630.16
2022-11-15T03:55:29.395Z,97625.00
2022-11-15T04:00:50.217Z,97621.38
2022-11-15T04:06:12.652Z,97619.91
2022-11-15T04:11:34.047Z,97621.50
2022-11-15T04:16:54.757Z,97617.13
2022-11-15T04:22:34.225Z,97624.75
2022-11-15T04:27:55.022Z,97620.72
2022-11-15T04:33:18.514Z,97621.88
2022-11-15T04:38:39.356Z,97611.84
2022-11-15T04:44:00.385Z,97608.34
2022-11-15T04:49:22.538Z,97604.41
2022-11-15T04:54:43.804Z,97593.69
2022-11-15T05:00:11.571Z,97597.50
2022-11-15T05:05:32.476Z,97586.72
2022-11-15T05:10:53.626Z,97586.38
2022-11-15T05:16:17.511Z,97579.44
2022-11-15T05:21:39.764Z,97575.25
2022-11-15T05:27:01.190Z,97583.06
2022-11-15T05:32:22.508Z,97580.19
2022-11-15T05:37:43.523Z,97568.81
2022-11-15T05:43:07.494Z,97555.44
2022-11-15T05:48:28.602Z,97559.78
2022-11-15T05:53:57.304Z,97554.06
2022-11-15T05:59:19.355Z,97560.56
2022-11-15T06:04:42.942Z,97561.78
2022-11-15T06:10:04.737Z,97558.16
2022-11-15T06:15:26.913Z,97567.88
2022-11-15T06:20:48.071Z,97570.09
2022-11-15T06:26:09.155Z,97566.81
2022-11-15T06:31:29.833Z,97570.38
2022-11-15T06:36:51.100Z,97568.09
2022-11-15T06:42:13.172Z,97570.97
2022-11-15T06:47:34.434Z,97575.72
2022-11-15T06:52:56.210Z,97584.13
2022-11-15T06:58:17.307Z,97578.28
2022-11-15T07:03:41.462Z,97584.09
2022-11-15T07:09:05.806Z,97595.81
2022-11-15T07:14:26.905Z,97577.59
2022-11-15T07:19:47.831Z,97584.88
2022-11-15T07:25:10.284Z,97585.38
2022-11-15T07:30:31.829Z,97588.59
2022-11-15T07:35:53.238Z,97585.16
2022-11-15T07:41:14.309Z,97581.75
2022-11-15T07:46:35.505Z,97580.19
2022-11-15T07:51:56.485Z,97564.91
2022-11-15T07:57:17.501Z,97561.44
2022-11-15T08:02:39.780Z,97566.44
2022-11-15T08:08:01.371Z,97550.53
2022-11-15T08:13:22.454Z,97559.25
2022-11-15T08:18:43.437Z,97551.59
2022-11-15T08:24:04.682Z,97552.28
2022-11-15T08:29:25.530Z,97552.06
2022-11-15T08:34:47.954Z,97539.72
2022-11-15T08:40:11.712Z,97531.41
2022-11-15T08:45:36.402Z,97526.00
2022-11-15T08:50:58.129Z,97510.38
2022-11-15T08:56:20.637Z,97505.47
2022-11-15T09:01:41.798Z,97505.25
2022-11-15T09:07:03.167Z,97514.03
2022-11-15T09:12:24.276Z,97508.84
2022-11-15T09:17:48.372Z,97500.97
2022-11-15T09:23:09.523Z,97504.28
2022-11-15T09:28:31.854Z,97497.50
2022-11-15T09:33:54.684Z,97501.63
2022-11-15T09:39:18.410Z,97497.97
2022-11-15T09:44:58.026Z,97497.78
2022-11-15T09:50:30.550Z,97482.97
2022-11-15T09:56:01.937Z,97482.31
2022-11-15T10:01:18.036Z,97480.13
2022-11-15T10:06:27.993Z,97470.56
2022-11-15T10:11:38.613Z,97472.72
2022-11-15T10:17:05.732Z,97469.41
2022-11-15T10:22:33.824Z,97462.72
2022-11-15T10:27:37.012Z,97452.69
2022-11-15T10:32:46.084Z,97443.00
2022-11-15T10:37:49.207Z,97440.41
2022-11-15T10:43:19.845Z,97440.25
2022-11-15T10:48:24.071Z,97423.78
2022-11-15T10:53:29.739Z,97417.41
2022-11-15T10:58:39.123Z,97418.91
2022-11-15T11:03:43.855Z,97417.47
2022-11-15T11:09:09.976Z,97415.06
2022-11-15T11:14:34.508Z,97422.94
2022-11-15T11:20:09.932Z,97406.53
2022-11-15T11:25:44.922Z,97409.88
2022-11-15T11:31:15.956Z,97408.34
2022-11-15T11:36:50.469Z,97391.94
2022-11-15T11:42:03.060Z,97380.38
2022-11-15T11:47:08.682Z,97364.22
2022-11-15T11:52:15.113Z,97359.75
2022-11-15T11:57:56.348Z,97348.81
2022-11-15T12:03:31.353Z,97349.84
2022-11-15T12:08:39.726Z,97340.84
2022-11-15T12:13:43.886Z,97332.25
2022-11-15T12:18:54.479Z,97324.56
2022-11-15T12:24:05.467Z,97323.25
2022-11-15T12:29:17.959Z,97329.66
2022-11-15T12:34:20.565Z,97319.44
2022-11-15T12:40:05.680Z,97311.91
2022-11-15T12:45:29.475Z,97319.06
2022-11-15T12:50:54.597Z,97310.41
2022-11-15T12:56:17.833Z,97300.97
2022-11-15T13:01:38.743Z,97300.41
2022-11-15T13:06:48.308Z,97292.19
2022-11-15T13:11:52.320Z,97285.53
2022-11-15T13:17:01.804Z,97279.31
2022-11-15T13:22:28.403Z,97271.69
2022-11-15T13:27:32.119Z,97265.84
2022-11-15T13:32:34.764Z,97257.69
2022-11-15T13:37:37.224Z,97256.50
2022-11-15T13:42:44.647Z,97250.09
2022-11-15T13:47:55.419Z,97238.22
2022-11-15T13:53:02.912Z,97234.75
2022-11-15T13:58:07.400Z,97223.56
2022-11-15T14:03:29.003Z,97224.19
2022-11-15T14:08:31.871Z,97218.31
2022-11-15T14:13:35.288Z,97210.53
2022-11-15T14:18:50.436Z,97203.91
2022-11-15T14:23:53.067Z,97200.63
2022-11-15T14:28:55.462Z,97187.16
2022-11-15T14:33:57.856Z,97169.41
2022-11-15T14:39:06.234Z,97156.63
2022-11-15T14:44:11.732Z,97164.53
2022-11-15T14:49:17.359Z,97162.44
2022-11-15T14:54:19.761Z,97150.59
2022-11-15T14:59:22.212Z,97146.06
2022-11-15T15:04:24.599Z,97138.66
2022-11-15T15:09:29.644Z,97134.88
2022-11-15T15:14:32.228Z,97129.09
2022-11-15T15:19:34.913Z,97130.94
2022-11-15T15:24:37.339Z,97109.09
2022-11-15T15:29:42.728Z,97097.94
2022-11-15T15:34:45.152Z,97097.63
2022-11-15T15:39:47.567Z,97102.47
2022-11-15T15:44:51.387Z,97090.31
2022-11-15T15:49:53.786Z,97089.28
2022-11-15T15:54:56.418Z,97085.78
2022-11-15T15:59:58.870Z,97086.44
2022-11-15T16:05:01.225Z,97066.25
2022-11-15T16:10:26.039Z,97056.69
2022-11-15T16:15:31.314Z,97065.81
2022-11-15T16:20:43.611Z,97047.31
2022-11-15T16:25:54.804Z,97036.69
2022-11-15T16:31:06.502Z,97028.50
2022-11-15T16:36:28.430Z,97022.75
2022-11-15T16:41:33.136Z,97017.81
2022-11-15T16:46:35.927Z,97015.31
2022-11-15T16:51:39.481Z,97013.34
2022-11-15T16:56:42.655Z,97008.06
2022-11-15T17:01:50.835Z,97006.75
2022-11-15T17:06:53.624Z,96991.78
2022-11-15T17:11:56.151Z,96990.44
2022-11-15T17:16:58.594Z,96980.97
2022-11-15T17:22:01.062Z,96988.50
2022-11-15T17:27:03.656Z,96982.25
2022-11-15T17:32:06.317Z,96977.16
2022-11-15T17:37:08.706Z,96976.91
2022-11-15T17:42:11.160Z,96975.13
2022-11-15T17:47:13.581Z,96962.13
2022-11-15T17:52:16.015Z,96963.69
2022-11-15T17:57:18.463Z,96963.09
2022-11-15T18:02:20.928Z,96959.06
2022-11-15T18:07:23.464Z,96956.47
2022-11-15T18:12:25.875Z,96957.78
2022-11-15T18:17:28.536Z,96952.50
2022-11-15T18:22:31.192Z,96953.25
2022-11-15T18:27:33.709Z,96952.16
2022-11-15T18:32:36.347Z,96943.63
2022-11-15T18:37:38.784Z,96945.19
2022-11-15T18:42:41.222Z,96951.56
2022-11-15T18:47:43.640Z,96951.50
2022-11-15T18:52:46.091Z,96944.94
2022-11-15T18:57:48.482Z,96948.47
2022-11-15T19:02:53.645Z,96943.19
2022-11-15T19:07:56.090Z,96933.22
2022-11-15T19:12:58.511Z,96923.22
2022-11-15T19:18:01.704Z,96924.09
2022-11-15T19:23:04.544Z,96917.72
2022-11-15T19:28:07.189Z,96901.72
2022-11-15T19:33:09.594Z,96906.06
2022-11-15T19:38:12.230Z,96900.09
2022-11-15T19:43:14.759Z,96889.78
2022-11-15T19:48:17.228Z,96888.72
2022-11-15T19:53:20.051Z,96870.53
2022-11-15T19:58:24.597Z,96881.44
2022-11-15T20:03:26.991Z,96873.03
2022-11-15T20:08:29.678Z,96866.06
2022-11-15T20:13:32.427Z,96862.03
2022-11-15T20:18:35.991Z,96854.84
2022-11-15T20:23:39.326Z,96853.84
2022-11-15T20:28:44.082Z,96856.28
2022-11-15T20:33:46.491Z,96856.91
2022-11-15T20:38:48.867Z,96857.28
2022-11-15T20:43:51.764Z,96854.25
2022-11-15T20:48:54.196Z,96844.53
2022-11-15T20:53:56.701Z,96832.66
2022-11-15T20:58:59.280Z,96831.09
2022-11-15T21:04:01.695Z,96826.69
2022-11-15T21:09:23.096Z,96819.47
2022-11-15T21:14:25.556Z,96815.88
2022-11-15T21:19:34.019Z,96803.81
2022-11-15T21:24:39.163Z,96791.97
2022-11-15T21:29:45.625Z,96784.50
2022-11-15T21:34:48.054Z,96780.16
2022-11-15T21:39:50.491Z,96780.91
2022-11-15T21:44:53.536Z,96778.66
2022-11-15T21:49:55.910Z,96781.72
2022-11-15T21:54:58.288Z,96781.81
2022-11-15T22:00:20.635Z,96771.19
2022-11-15T22:05:23.031Z,96769.38
2022-11-15T22:10:25.427Z,96765.84
2022-11-15T22:15:27.945Z,96768.00
2022-11-15T22:20:44.587Z,96760.06
2022-11-15T22:25:47.732Z,96762.97
2022-11-15T22:30:52.662Z,96763.13
2022-11-15T22:35:56.118Z,96754.88
2022-11-15T22:41:02.488Z,96755.81
2022-11-15T22:46:05.568Z,96756.06
2022-11-15T22:51:08.443Z,96760.81
2022-11-15T22:56:10.921Z,96755.41
2022-11-15T23:01:22.050Z,96752.75
2022-11-15T23:06:24.548Z,96751.28
2022-11-15T23:11:45.761Z,96753.47
2022-11-15T23:16:48.270Z,96752.88
2022-11-15T23:22:09.175Z,96742.16
2022-11-15T23:27:15.226Z,96731.16
2022-11-15T23:32:36.567Z,96733.88
2022-11-15T23:37:39.075Z,96732.53
2022-11-15T23:42:41.511Z,96729.84
2022-11-15T23:47:45.054Z,96731.94
2022-11-15T23:52:47.490Z,96731.09
2022-11-15T23:57:50.038Z,96735.69
